sensor_id;sensor_type;location;lat;lon;timestamp;temperature;humidity
74359;DHT22;62792;46.236;6.040;2023-03-04T00:03:56;23.80;32.50
74359;DHT22;62792;46.236;6.040;2023-03-04T00:09:00;23.70;32.60
74359;DHT22;62792;46.236;6.040;2023-03-04T00:14:04;23.80;32.50
74359;DHT22;62792;46.236;6.040;2023-03-04T00:19:09;23.80;32.60
74359;DHT22;62792;46.236;6.040;2023-03-04T00:24:13;23.80;32.50
74359;DHT22;62792;46.236;6.040;2023-03-04T00:29:16;23.70;32.50
74359;DHT22;62792;46.236;6.040;2023-03-04T00:34:19;23.70;32.70
74359;DHT22;62792;46.236;6.040;2023-03-04T00:39:23;23.70;32.60
74359;DHT22;62792;46.236;6.040;2023-03-04T00:44:26;23.80;32.60
74359;DHT22;62792;46.236;6.040;2023-03-04T00:49:29;23.70;32.40
74359;DHT22;62792;46.236;6.040;2023-03-04T00:54:34;23.70;32.60
74359;DHT22;62792;46.236;6.040;2023-03-04T00:59:38;23.70;32.60
74359;DHT22;62792;46.236;6.040;2023-03-04T01:04:44;23.80;32.80
74359;DHT22;62792;46.236;6.040;2023-03-04T01:09:48;23.80;32.70
74359;DHT22;62792;46.236;6.040;2023-03-04T01:14:51;23.80;32.70
74359;DHT22;62792;46.236;6.040;2023-03-04T01:19:54;23.80;32.40
74359;DHT22;62792;46.236;6.040;2023-03-04T01:24:59;23.80;32.70
74359;DHT22;62792;46.236;6.040;2023-03-04T01:30:02;23.90;32.50
74359;DHT22;62792;46.236;6.040;2023-03-04T01:35:06;23.80;32.60
74359;DHT22;62792;46.236;6.040;2023-03-04T01:40:11;23.80;32.70
74359;DHT22;62792;46.236;6.040;2023-03-04T01:45:15;23.80;32.70
74359;DHT22;62792;46.236;6.040;2023-03-04T01:50:20;23.90;32.60
74359;DHT22;62792;46.236;6.040;2023-03-04T01:55:27;23.90;32.80
74359;DHT22;62792;46.236;6.040;2023-03-04T02:00:30;23.90;32.70
74359;DHT22;62792;46.236;6.040;2023-03-04T02:05:34;23.70;32.60
74359;DHT22;62792;46.236;6.040;2023-03-04T02:10:41;23.80;32.80
74359;DHT22;62792;46.236;6.040;2023-03-04T02:15:44;23.80;32.60
74359;DHT22;62792;46.236;6.040;2023-03-04T02:20:50;23.80;32.80
74359;DHT22;62792;46.236;6.040;2023-03-04T02:26:10;23.90;32.80
74359;DHT22;62792;46.236;6.040;2023-03-04T02:31:19;23.90;32.70
74359;DHT22;62792;46.236;6.040;2023-03-04T02:36:24;23.80;32.70
74359;DHT22;62792;46.236;6.040;2023-03-04T02:41:29;23.80;32.90
74359;DHT22;62792;46.236;6.040;2023-03-04T02:46:32;23.80;32.80
74359;DHT22;62792;46.236;6.040;2023-03-04T02:51:35;23.80;32.70
74359;DHT22;62792;46.236;6.040;2023-03-04T02:56:39;23.80;32.80
74359;DHT22;62792;46.236;6.040;2023-03-04T03:01:46;23.80;32.80
74359;DHT22;62792;46.236;6.040;2023-03-04T03:06:49;23.80;32.80
74359;DHT22;62792;46.236;6.040;2023-03-04T03:11:54;23.80;32.90
74359;DHT22;62792;46.236;6.040;2023-03-04T03:16:57;23.80;32.80
74359;DHT22;62792;46.236;6.040;2023-03-04T03:21:59;23.80;32.80
74359;DHT22;62792;46.236;6.040;2023-03-04T03:27:04;23.80;32.70
74359;DHT22;62792;46.236;6.040;2023-03-04T03:32:07;23.90;32.80
74359;DHT22;62792;46.236;6.040;2023-03-04T03:37:10;23.80;32.80
74359;DHT22;62792;46.236;6.040;2023-03-04T03:42:14;23.90;33.00
74359;DHT22;62792;46.236;6.040;2023-03-04T03:47:17;23.80;32.90
74359;DHT22;62792;46.236;6.040;2023-03-04T03:52:20;23.80;32.90
74359;DHT22;62792;46.236;6.040;2023-03-04T03:57:24;23.90;32.90
74359;DHT22;62792;46.236;6.040;2023-03-04T04:02:27;23.80;32.80
74359;DHT22;62792;46.236;6.040;2023-03-04T04:07:30;23.90;32.90
74359;DHT22;62792;46.236;6.040;2023-03-04T04:12:34;23.80;33.10
74359;DHT22;62792;46.236;6.040;2023-03-04T04:17:37;23.80;32.90
74359;DHT22;62792;46.236;6.040;2023-03-04T04:22:40;23.80;33.00
74359;DHT22;62792;46.236;6.040;2023-03-04T04:27:44;23.90;32.90
74359;DHT22;62792;46.236;6.040;2023-03-04T04:32:47;23.90;32.80
74359;DHT22;62792;46.236;6.040;2023-03-04T04:37:49;23.90;33.00
74359;DHT22;62792;46.236;6.040;2023-03-04T04:42:54;23.80;33.10
74359;DHT22;62792;46.236;6.040;2023-03-04T04:47:57;23.80;32.90
74359;DHT22;62792;46.236;6.040;2023-03-04T04:53:00;23.80;32.90
74359;DHT22;62792;46.236;6.040;2023-03-04T04:58:05;23.80;32.90
74359;DHT22;62792;46.236;6.040;2023-03-04T05:03:08;23.80;33.00
74359;DHT22;62792;46.236;6.040;2023-03-04T05:08:11;23.80;32.90
74359;DHT22;62792;46.236;6.040;2023-03-04T05:13:15;23.70;33.10
74359;DHT22;62792;46.236;6.040;2023-03-04T05:18:20;23.70;32.90
74359;DHT22;62792;46.236;6.040;2023-03-04T05:23:24;23.80;33.00
74359;DHT22;62792;46.236;6.040;2023-03-04T05:28:29;23.80;32.80
74359;DHT22;62792;46.236;6.040;2023-03-04T05:33:32;23.70;32.90
74359;DHT22;62792;46.236;6.040;2023-03-04T05:38:36;23.80;33.00
74359;DHT22;62792;46.236;6.040;2023-03-04T05:43:40;23.90;32.90
74359;DHT22;62792;46.236;6.040;2023-03-04T05:48:44;23.70;32.90
74359;DHT22;62792;46.236;6.040;2023-03-04T05:53:46;23.80;33.10
74359;DHT22;62792;46.236;6.040;2023-03-04T05:58:51;23.80;33.10
74359;DHT22;62792;46.236;6.040;2023-03-04T06:03:54;23.80;33.10
74359;DHT22;62792;46.236;6.040;2023-03-04T06:08:57;23.80;33.00
74359;DHT22;62792;46.236;6.040;2023-03-04T06:14:02;23.80;33.10
74359;DHT22;62792;46.236;6.040;2023-03-04T06:19:05;23.80;33.00
74359;DHT22;62792;46.236;6.040;2023-03-04T06:24:08;23.80;32.80
74359;DHT22;62792;46.236;6.040;2023-03-04T06:29:13;23.80;33.10
74359;DHT22;62792;46.236;6.040;2023-03-04T06:34:15;23.80;33.10
74359;DHT22;62792;46.236;6.040;2023-03-04T06:39:18;23.70;33.10
74359;DHT22;62792;46.236;6.040;2023-03-04T06:44:22;23.70;33.00
74359;DHT22;62792;46.236;6.040;2023-03-04T06:49:25;23.80;33.20
74359;DHT22;62792;46.236;6.040;2023-03-04T06:54:28;23.80;33.10
74359;DHT22;62792;46.236;6.040;2023-03-04T06:59:33;23.80;33.00
74359;DHT22;62792;46.236;6.040;2023-03-04T07:04:36;23.90;33.00
74359;DHT22;62792;46.236;6.040;2023-03-04T07:09:39;23.80;33.10
74359;DHT22;62792;46.236;6.040;2023-03-04T07:14:43;23.80;33.20
74359;DHT22;62792;46.236;6.040;2023-03-04T07:19:46;23.80;33.10
74359;DHT22;62792;46.236;6.040;2023-03-04T07:24:49;23.80;32.90
74359;DHT22;62792;46.236;6.040;2023-03-04T07:29:54;23.80;33.10
74359;DHT22;62792;46.236;6.040;2023-03-04T07:34:57;23.90;32.90
74359;DHT22;62792;46.236;6.040;2023-03-04T07:40:00;23.90;33.20
74359;DHT22;62792;46.236;6.040;2023-03-04T07:45:05;23.90;33.10
74359;DHT22;62792;46.236;6.040;2023-03-04T07:50:09;23.90;32.90
74359;DHT22;62792;46.236;6.040;2023-03-04T07:55:13;23.90;33.00
74359;DHT22;62792;46.236;6.040;2023-03-04T08:00:19;23.90;33.10
74359;DHT22;62792;46.236;6.040;2023-03-04T08:05:22;23.90;33.10
74359;DHT22;62792;46.236;6.040;2023-03-04T08:10:25;23.90;33.00
74359;DHT22;62792;46.236;6.040;2023-03-04T08:15:29;24.00;33.10
74359;DHT22;62792;46.236;6.040;2023-03-04T08:20:34;24.00;33.10
74359;DHT22;62792;46.236;6.040;2023-03-04T08:25:38;24.00;33.00
74359;DHT22;62792;46.236;6.040;2023-03-04T08:30:42;24.00;32.80
74359;DHT22;62792;46.236;6.040;2023-03-04T08:35:46;24.00;33.20
74359;DHT22;62792;46.236;6.040;2023-03-04T08:40:51;24.00;32.90
74359;DHT22;62792;46.236;6.040;2023-03-04T08:45:56;24.00;33.00
74359;DHT22;62792;46.236;6.040;2023-03-04T08:50:59;24.00;33.00
74359;DHT22;62792;46.236;6.040;2023-03-04T08:56:02;24.00;33.00
74359;DHT22;62792;46.236;6.040;2023-03-04T09:01:07;24.00;33.10
74359;DHT22;62792;46.236;6.040;2023-03-04T09:06:11;24.10;33.00
74359;DHT22;62792;46.236;6.040;2023-03-04T09:11:16;24.10;33.00
74359;DHT22;62792;46.236;6.040;2023-03-04T09:16:20;24.10;33.10
74359;DHT22;62792;46.236;6.040;2023-03-04T09:21:23;24.10;33.10
74359;DHT22;62792;46.236;6.040;2023-03-04T09:26:26;24.10;33.10
74359;DHT22;62792;46.236;6.040;2023-03-04T09:31:31;24.20;33.00
74359;DHT22;62792;46.236;6.040;2023-03-04T09:36:34;24.20;33.00
74359;DHT22;62792;46.236;6.040;2023-03-04T09:41:38;24.20;33.10
74359;DHT22;62792;46.236;6.040;2023-03-04T09:46:43;24.30;33.00
74359;DHT22;62792;46.236;6.040;2023-03-04T09:51:51;24.30;33.00
74359;DHT22;62792;46.236;6.040;2023-03-04T09:56:58;24.40;32.90
74359;DHT22;62792;46.236;6.040;2023-03-04T10:02:10;24.40;32.80
74359;DHT22;62792;46.236;6.040;2023-03-04T10:07:18;24.40;33.10
74359;DHT22;62792;46.236;6.040;2023-03-04T10:12:23;24.50;32.90
74359;DHT22;62792;46.236;6.040;2023-03-04T10:17:30;24.40;32.90
74359;DHT22;62792;46.236;6.040;2023-03-04T10:22:38;24.50;32.80
74359;DHT22;62792;46.236;6.040;2023-03-04T10:27:47;24.50;32.90
74359;DHT22;62792;46.236;6.040;2023-03-04T10:32:53;24.60;33.00
74359;DHT22;62792;46.236;6.040;2023-03-04T10:37:56;24.60;32.90
74359;DHT22;62792;46.236;6.040;2023-03-04T10:43:03;24.60;33.00
74359;DHT22;62792;46.236;6.040;2023-03-04T10:48:18;24.60;32.80
74359;DHT22;62792;46.236;6.040;2023-03-04T10:53:29;24.70;32.80
74359;DHT22;62792;46.236;6.040;2023-03-04T10:58:34;24.70;32.80
74359;DHT22;62792;46.236;6.040;2023-03-04T11:03:39;24.70;32.80
74359;DHT22;62792;46.236;6.040;2023-03-04T11:08:52;24.70;32.70
74359;DHT22;62792;46.236;6.040;2023-03-04T11:13:57;24.80;32.80
74359;DHT22;62792;46.236;6.040;2023-03-04T11:19:05;24.70;32.90
74359;DHT22;62792;46.236;6.040;2023-03-04T11:24:12;24.70;32.90
74359;DHT22;62792;46.236;6.040;2023-03-04T11:29:30;24.70;32.80
74359;DHT22;62792;46.236;6.040;2023-03-04T11:34:38;24.70;32.80
74359;DHT22;62792;46.236;6.040;2023-03-04T11:39:45;24.80;32.90
74359;DHT22;62792;46.236;6.040;2023-03-04T11:44:49;24.80;32.80
74359;DHT22;62792;46.236;6.040;2023-03-04T11:55:28;24.70;32.80
74359;DHT22;62792;46.236;6.040;2023-03-04T12:00:38;24.80;32.90
74359;DHT22;62792;46.236;6.040;2023-03-04T12:05:47;24.80;32.90
74359;DHT22;62792;46.236;6.040;2023-03-04T12:10:59;24.80;32.80
74359;DHT22;62792;46.236;6.040;2023-03-04T12:16:10;24.80;32.80
74359;DHT22;62792;46.236;6.040;2023-03-04T12:21:27;24.80;32.80
74359;DHT22;62792;46.236;6.040;2023-03-04T12:26:41;24.80;33.00
74359;DHT22;62792;46.236;6.040;2023-03-04T12:31:45;24.80;33.00
74359;DHT22;62792;46.236;6.040;2023-03-04T12:36:51;24.90;32.90
74359;DHT22;62792;46.236;6.040;2023-03-04T12:42:01;24.90;32.70
74359;DHT22;62792;46.236;6.040;2023-03-04T12:47:17;24.80;32.60
74359;DHT22;62792;46.236;6.040;2023-03-04T12:52:30;25.00;32.90
74359;DHT22;62792;46.236;6.040;2023-03-04T12:57:40;24.90;32.80
74359;DHT22;62792;46.236;6.040;2023-03-04T13:02:46;24.90;32.80
74359;DHT22;62792;46.236;6.040;2023-03-04T13:08:00;24.90;32.80
74359;DHT22;62792;46.236;6.040;2023-03-04T13:13:31;25.00;32.70
74359;DHT22;62792;46.236;6.040;2023-03-04T13:18:35;25.00;32.70
74359;DHT22;62792;46.236;6.040;2023-03-04T13:23:41;25.10;32.60
74359;DHT22;62792;46.236;6.040;2023-03-04T13:28:44;25.10;32.60
74359;DHT22;62792;46.236;6.040;2023-03-04T13:33:49;25.10;32.70
74359;DHT22;62792;46.236;6.040;2023-03-04T13:39:01;25.20;32.80
74359;DHT22;62792;46.236;6.040;2023-03-04T13:44:28;25.20;32.90
74359;DHT22;62792;46.236;6.040;2023-03-04T13:49:35;25.20;32.70
74359;DHT22;62792;46.236;6.040;2023-03-04T13:54:39;25.20;32.60
74359;DHT22;62792;46.236;6.040;2023-03-04T13:59:43;25.20;32.50
74359;DHT22;62792;46.236;6.040;2023-03-04T14:04:55;25.30;32.70
74359;DHT22;62792;46.236;6.040;2023-03-04T14:10:02;25.30;32.60
74359;DHT22;62792;46.236;6.040;2023-03-04T14:15:15;25.40;32.50
74359;DHT22;62792;46.236;6.040;2023-03-04T14:20:23;25.30;32.40
74359;DHT22;62792;46.236;6.040;2023-03-04T14:25:30;25.40;32.60
74359;DHT22;62792;46.236;6.040;2023-03-04T14:30:37;25.40;32.50
74359;DHT22;62792;46.236;6.040;2023-03-04T14:35:45;25.40;32.50
74359;DHT22;62792;46.236;6.040;2023-03-04T14:40:51;25.50;32.60
74359;DHT22;62792;46.236;6.040;2023-03-04T14:45:56;25.40;32.50
74359;DHT22;62792;46.236;6.040;2023-03-04T14:51:00;25.40;32.50
74359;DHT22;62792;46.236;6.040;2023-03-04T14:56:06;25.40;32.40
74359;DHT22;62792;46.236;6.040;2023-03-04T15:01:14;25.50;32.50
74359;DHT22;62792;46.236;6.040;2023-03-04T15:06:19;25.50;32.40
74359;DHT22;62792;46.236;6.040;2023-03-04T15:11:25;25.60;32.40
74359;DHT22;62792;46.236;6.040;2023-03-04T15:16:51;25.60;32.30
74359;DHT22;62792;46.236;6.040;2023-03-04T15:22:03;26.20;32.20
74359;DHT22;62792;46.236;6.040;2023-03-04T15:27:08;26.70;30.90
74359;DHT22;62792;46.236;6.040;2023-03-04T15:32:12;26.50;31.40
74359;DHT22;62792;46.236;6.040;2023-03-04T15:37:17;26.20;31.90
74359;DHT22;62792;46.236;6.040;2023-03-04T15:42:23;25.80;32.20
74359;DHT22;62792;46.236;6.040;2023-03-04T15:47:26;25.70;32.30
74359;DHT22;62792;46.236;6.040;2023-03-04T15:52:29;25.70;32.40
74359;DHT22;62792;46.236;6.040;2023-03-04T15:57:35;25.60;32.40
74359;DHT22;62792;46.236;6.040;2023-03-04T16:02:38;25.60;32.50
74359;DHT22;62792;46.236;6.040;2023-03-04T16:07:41;25.60;32.30
74359;DHT22;62792;46.236;6.040;2023-03-04T16:12:48;25.50;32.50
74359;DHT22;62792;46.236;6.040;2023-03-04T16:17:51;25.50;32.50
74359;DHT22;62792;46.236;6.040;2023-03-04T16:22:54;25.50;32.60
74359;DHT22;62792;46.236;6.040;2023-03-04T16:28:00;25.40;32.50
74359;DHT22;62792;46.236;6.040;2023-03-04T16:33:04;25.30;32.70
74359;DHT22;62792;46.236;6.040;2023-03-04T16:38:11;25.20;32.70
74359;DHT22;62792;46.236;6.040;2023-03-04T16:43:21;25.10;32.60
74359;DHT22;62792;46.236;6.040;2023-03-04T16:48:25;25.10;32.80
74359;DHT22;62792;46.236;6.040;2023-03-04T16:53:30;25.00;32.80
74359;DHT22;62792;46.236;6.040;2023-03-04T16:58:35;25.00;32.80
74359;DHT22;62792;46.236;6.040;2023-03-04T17:03:38;24.90;32.90
74359;DHT22;62792;46.236;6.040;2023-03-04T17:08:41;24.90;32.90
74359;DHT22;62792;46.236;6.040;2023-03-04T17:13:46;24.80;33.00
74359;DHT22;62792;46.236;6.040;2023-03-04T17:18:49;24.80;33.00
74359;DHT22;62792;46.236;6.040;2023-03-04T17:23:53;24.80;33.10
74359;DHT22;62792;46.236;6.040;2023-03-04T17:28:57;24.60;33.00
74359;DHT22;62792;46.236;6.040;2023-03-04T17:34:00;24.70;33.00
74359;DHT22;62792;46.236;6.040;2023-03-04T17:39:03;24.60;33.00
74359;DHT22;62792;46.236;6.040;2023-03-04T17:44:08;24.60;33.10
74359;DHT22;62792;46.236;6.040;2023-03-04T17:49:12;24.70;33.10
74359;DHT22;62792;46.236;6.040;2023-03-04T17:54:15;24.60;33.20
74359;DHT22;62792;46.236;6.040;2023-03-04T17:59:19;24.60;33.30
74359;DHT22;62792;46.236;6.040;2023-03-04T18:04:22;24.60;33.10
74359;DHT22;62792;46.236;6.040;2023-03-04T18:09:25;24.50;33.10
74359;DHT22;62792;46.236;6.040;2023-03-04T18:14:29;24.50;33.20
74359;DHT22;62792;46.236;6.040;2023-03-04T18:19:32;24.50;33.10
74359;DHT22;62792;46.236;6.040;2023-03-04T18:24:35;24.60;33.40
74359;DHT22;62792;46.236;6.040;2023-03-04T18:29:41;24.50;33.20
74359;DHT22;62792;46.236;6.040;2023-03-04T18:34:44;24.50;33.20
74359;DHT22;62792;46.236;6.040;2023-03-04T18:39:47;24.50;33.30
74359;DHT22;62792;46.236;6.040;2023-03-04T18:44:51;24.50;33.30
74359;DHT22;62792;46.236;6.040;2023-03-04T18:49:54;24.50;33.20
74359;DHT22;62792;46.236;6.040;2023-03-04T18:54:57;24.50;33.10
74359;DHT22;62792;46.236;6.040;2023-03-04T19:00:02;24.40;33.30
74359;DHT22;62792;46.236;6.040;2023-03-04T19:05:08;24.40;33.30
74359;DHT22;62792;46.236;6.040;2023-03-04T19:10:13;24.40;33.10
74359;DHT22;62792;46.236;6.040;2023-03-04T19:15:18;24.50;33.10
74359;DHT22;62792;46.236;6.040;2023-03-04T19:20:20;24.40;33.20
74359;DHT22;62792;46.236;6.040;2023-03-04T19:25:24;24.40;33.30
74359;DHT22;62792;46.236;6.040;2023-03-04T19:30:29;24.40;33.00
74359;DHT22;62792;46.236;6.040;2023-03-04T19:35:32;24.40;33.30
74359;DHT22;62792;46.236;6.040;2023-03-04T19:40:37;24.30;33.20
74359;DHT22;62792;46.236;6.040;2023-03-04T19:45:42;24.30;33.20
74359;DHT22;62792;46.236;6.040;2023-03-04T19:50:44;24.40;33.10
74359;DHT22;62792;46.236;6.040;2023-03-04T19:55:47;24.40;33.40
74359;DHT22;62792;46.236;6.040;2023-03-04T20:00:52;24.40;33.10
74359;DHT22;62792;46.236;6.040;2023-03-04T20:06:00;24.30;33.50
74359;DHT22;62792;46.236;6.040;2023-03-04T20:11:05;24.30;33.30
74359;DHT22;62792;46.236;6.040;2023-03-04T20:16:12;24.30;33.20
74359;DHT22;62792;46.236;6.040;2023-03-04T20:21:15;24.30;33.30
74359;DHT22;62792;46.236;6.040;2023-03-04T20:26:18;24.30;33.20
74359;DHT22;62792;46.236;6.040;2023-03-04T20:31:23;24.30;33.40
74359;DHT22;62792;46.236;6.040;2023-03-04T20:36:28;24.20;33.20
74359;DHT22;62792;46.236;6.040;2023-03-04T20:41:32;24.30;33.20
74359;DHT22;62792;46.236;6.040;2023-03-04T20:46:37;24.30;33.30
74359;DHT22;62792;46.236;6.040;2023-03-04T20:51:43;24.30;33.20
74359;DHT22;62792;46.236;6.040;2023-03-04T20:56:46;24.30;33.10
74359;DHT22;62792;46.236;6.040;2023-03-04T21:01:51;24.20;33.20
74359;DHT22;62792;46.236;6.040;2023-03-04T21:06:54;24.30;33.20
74359;DHT22;62792;46.236;6.040;2023-03-04T21:11:57;24.30;33.20
74359;DHT22;62792;46.236;6.040;2023-03-04T21:17:03;24.20;33.30
74359;DHT22;62792;46.236;6.040;2023-03-04T21:22:06;24.20;33.20
74359;DHT22;62792;46.236;6.040;2023-03-04T21:27:09;24.20;33.10
74359;DHT22;62792;46.236;6.040;2023-03-04T21:32:16;24.20;33.30
74359;DHT22;62792;46.236;6.040;2023-03-04T21:37:25;24.20;33.10
74359;DHT22;62792;46.236;6.040;2023-03-04T21:42:28;24.20;33.20
74359;DHT22;62792;46.236;6.040;2023-03-04T21:47:33;24.20;33.30
74359;DHT22;62792;46.236;6.040;2023-03-04T21:52:35;24.20;33.10
74359;DHT22;62792;46.236;6.040;2023-03-04T21:57:38;24.10;33.30
74359;DHT22;62792;46.236;6.040;2023-03-04T22:02:43;24.20;33.20
74359;DHT22;62792;46.236;6.040;2023-03-04T22:07:45;24.20;33.10
74359;DHT22;62792;46.236;6.040;2023-03-04T22:12:48;24.10;33.00
74359;DHT22;62792;46.236;6.040;2023-03-04T22:17:53;24.10;33.10
74359;DHT22;62792;46.236;6.040;2023-03-04T22:22:55;24.10;33.10
74359;DHT22;62792;46.236;6.040;2023-03-04T22:27:58;24.10;33.10
74359;DHT22;62792;46.236;6.040;2023-03-04T22:33:03;24.10;33.00
74359;DHT22;62792;46.236;6.040;2023-03-04T22:38:06;24.10;33.00
74359;DHT22;62792;46.236;6.040;2023-03-04T22:43:09;24.10;33.10
74359;DHT22;62792;46.236;6.040;2023-03-04T22:48:13;24.10;33.00
74359;DHT22;62792;46.236;6.040;2023-03-04T22:53:16;24.10;32.90
74359;DHT22;62792;46.236;6.040;2023-03-04T22:58:18;24.20;33.00
74359;DHT22;62792;46.236;6.040;2023-03-04T23:03:23;24.10;33.10
74359;DHT22;62792;46.236;6.040;2023-03-04T23:08:27;24.10;33.00
74359;DHT22;62792;46.236;6.040;2023-03-04T23:13:29;24.10;33.10
74359;DHT22;62792;46.236;6.040;2023-03-04T23:18:35;24.10;32.90
74359;DHT22;62792;46.236;6.040;2023-03-04T23:23:39;24.10;33.00
74359;DHT22;62792;46.236;6.040;2023-03-04T23:28:42;24.10;33.00
74359;DHT22;62792;46.236;6.040;2023-03-04T23:33:46;24.10;32.90
74359;DHT22;62792;46.236;6.040;2023-03-04T23:38:50;24.10;32.90
74359;DHT22;62792;46.236;6.040;2023-03-04T23:43:53;24.10;33.00
74359;DHT22;62792;46.236;6.040;2023-03-04T23:48:59;24.10;32.90
74359;DHT22;62792;46.236;6.040;2023-03-04T23:54:02;24.00;32.80
74359;DHT22;62792;46.236;6.040;2023-03-04T23:59:05;24.00;32.90
